Time;durP1;ratioP1;P1;durP2;ratioP2;P2;SDS_P1;SDS_P2;PMS_P1;PMS_P2;Temp;Humidity;BMP_temperature;BMP_pressure;BME280_temperature;BME280_humidity;BME280_pressure;Samples;Min_cycle;Max_cycle;Signal;HPM_P1;HPM_P2
2021/03/12 00:00:19;;;;;;;13.15;3.20;;;10.70;70.70;;;;;;5012921;28;20376;-67
2021/03/12 00:02:45;;;;;;;14.45;3.28;;;10.70;70.60;;;;;;5042507;28;20036;-67
2021/03/12 00:05:12;;;;;;;11.65;3.45;;;10.70;70.50;;;;;;5047462;28;20029;-67
2021/03/12 00:07:38;;;;;;;18.58;4.05;;;10.60;70.00;;;;;;5039716;28;20033;-67
2021/03/12 00:10:17;;;;;;;15.68;3.45;;;10.70;69.90;;;;;;5030573;28;20029;-67
2021/03/12 00:12:44;;;;;;;12.45;2.35;;;10.60;69.80;;;;;;5048666;28;20475;-67
2021/03/12 00:15:13;;;;;;;11.98;2.97;;;10.70;69.60;;;;;;5030347;28;20444;-67
2021/03/12 00:17:39;;;;;;;14.90;3.25;;;10.70;69.50;;;;;;5038203;28;20033;-67
2021/03/12 00:20:15;;;;;;;11.45;2.00;;;10.70;69.50;;;;;;5037107;28;20033;-67
2021/03/12 00:22:42;;;;;;;17.00;4.45;;;10.60;69.50;;;;;;5042762;28;20136;-67
2021/03/12 00:25:11;;;;;;;13.50;3.78;;;10.70;68.90;;;;;;5039663;28;20036;-67
2021/03/12 00:27:36;;;;;;;16.35;3.55;;;10.60;68.70;;;;;;5048361;28;20025;-67
2021/03/12 00:30:07;;;;;;;11.05;2.42;;;10.60;68.90;;;;;;5030724;28;20421;-67
2021/03/12 00:32:34;;;;;;;11.63;3.38;;;10.60;68.70;;;;;;5015640;28;20183;-67
2021/03/12 00:35:00;;;;;;;15.48;3.83;;;10.70;68.60;;;;;;5029653;28;20611;-66
2021/03/12 00:37:26;;;;;;;15.45;3.95;;;10.70;68.60;;;;;;5045125;28;20088;-67
2021/03/12 00:39:52;;;;;;;11.82;4.15;;;10.70;68.30;;;;;;5031445;28;20186;-66
2021/03/12 00:42:19;;;;;;;13.43;2.75;;;10.70;68.40;;;;;;5047033;28;20151;-67
2021/03/12 00:44:45;;;;;;;10.38;3.58;;;10.70;68.20;;;;;;5048347;28;20463;-67
2021/03/12 00:47:10;;;;;;;18.83;2.75;;;10.70;68.00;;;;;;5047952;28;20059;-66
2021/03/12 00:49:36;;;;;;;13.20;3.10;;;10.70;68.00;;;;;;5030964;28;20386;-67
2021/03/12 00:52:03;;;;;;;12.55;2.90;;;10.70;67.80;;;;;;5018737;28;20033;-67
2021/03/12 00:54:28;;;;;;;13.77;2.58;;;10.60;67.70;;;;;;5025515;28;20037;-67
2021/03/12 00:56:54;;;;;;;13.27;3.47;;;10.60;67.70;;;;;;5039535;28;20033;-67
2021/03/12 00:59:19;;;;;;;9.70;2.25;;;10.60;68.10;;;;;;5019988;28;20033;-67
2021/03/12 01:01:45;;;;;;;10.73;4.50;;;10.60;67.90;;;;;;5016697;28;20033;-67
2021/03/12 01:04:11;;;;;;;12.32;3.28;;;10.60;68.00;;;;;;5041569;28;20750;-67
2021/03/12 01:06:36;;;;;;;11.00;3.13;;;10.60;68.00;;;;;;5013861;28;20032;-67
2021/03/12 01:09:03;;;;;;;12.80;3.40;;;10.60;68.00;;;;;;5029387;28;20364;-67
2021/03/12 01:11:29;;;;;;;14.05;4.40;;;10.70;67.60;;;;;;5041594;28;20039;-67
2021/03/12 01:13:55;;;;;;;9.98;2.55;;;10.70;67.60;;;;;;5047526;28;20028;-67
2021/03/12 01:16:20;;;;;;;10.65;3.40;;;10.60;67.60;;;;;;5047693;28;20057;-67
2021/03/12 01:18:46;;;;;;;12.18;2.17;;;10.60;67.70;;;;;;5031338;28;20440;-67
2021/03/12 01:21:12;;;;;;;8.95;3.10;;;10.60;67.80;;;;;;5046441;28;20437;-67
2021/03/12 01:23:37;;;;;;;8.75;3.17;;;10.60;67.60;;;;;;5048678;28;20562;-67
2021/03/12 01:26:03;;;;;;;11.95;2.95;;;10.50;67.60;;;;;;5030180;28;20065;-66
2021/03/12 01:28:29;;;;;;;15.80;4.07;;;10.50;67.70;;;;;;5049543;28;20025;-66
2021/03/12 01:30:55;;;;;;;13.88;3.83;;;10.50;67.70;;;;;;5047313;28;20037;-67
2021/03/12 01:33:20;;;;;;;12.85;3.15;;;10.50;68.10;;;;;;5052972;28;20049;-68
2021/03/12 01:35:46;;;;;;;11.15;3.33;;;10.40;68.20;;;;;;5040036;28;20037;-67
2021/03/12 01:38:12;;;;;;;10.02;2.88;;;10.40;68.20;;;;;;5034429;28;20044;-67
2021/03/12 01:40:43;;;;;;;9.57;3.17;;;10.40;68.10;;;;;;5043529;28;20510;-67
2021/03/12 01:43:09;;;;;;;8.68;2.72;;;10.50;68.20;;;;;;5054049;28;20036;-66
2021/03/12 01:45:40;;;;;;;7.63;2.78;;;10.40;68.10;;;;;;5041816;28;20033;-67
2021/03/12 01:48:09;;;;;;;8.88;2.63;;;10.40;68.20;;;;;;5032987;28;20026;-67
2021/03/12 01:50:35;;;;;;;10.10;3.05;;;10.40;68.10;;;;;;5034532;28;20033;-67
2021/03/12 01:53:02;;;;;;;8.02;2.47;;;10.50;68.10;;;;;;5051840;28;20048;-67
2021/03/12 01:55:31;;;;;;;16.30;3.65;;;10.40;68.10;;;;;;5052092;28;20033;-67
2021/03/12 01:57:57;;;;;;;13.93;4.15;;;10.40;67.90;;;;;;5052584;28;20086;-67
2021/03/12 02:00:24;;;;;;;13.93;3.65;;;10.40;67.90;;;;;;5051210;28;20045;-67
2021/03/12 02:02:49;;;;;;;15.45;4.40;;;10.50;67.70;;;;;;5051735;28;20364;-67
2021/03/12 02:05:16;;;;;;;14.68;4.20;;;10.50;67.30;;;;;;5050666;28;20051;-66
2021/03/12 02:07:42;;;;;;;13.32;3.00;;;10.40;67.40;;;;;;5032239;28;20029;-66
2021/03/12 02:10:12;;;;;;;11.80;4.03;;;10.40;67.50;;;;;;5029812;28;20368;-67
2021/03/12 02:12:54;;;;;;;11.07;3.45;;;10.40;67.70;;;;;;5031933;28;20321;-66
2021/03/12 02:15:49;;;;;;;11.05;3.42;;;10.40;67.60;;;;;;5013525;28;20383;-67
2021/03/12 02:18:24;;;;;;;11.52;2.78;;;10.40;67.70;;;;;;5027278;28;20066;-67
2021/03/12 02:20:53;;;;;;;12.70;3.95;;;10.50;67.70;;;;;;5045442;28;20033;-67
2021/03/12 02:23:55;;;;;;;14.65;4.55;;;10.50;67.60;;;;;;5037347;28;20021;-67
2021/03/12 02:26:42;;;;;;;9.18;2.75;;;10.40;67.70;;;;;;5045185;28;20022;-67
2021/03/12 02:29:12;;;;;;;14.32;5.22;;;10.30;68.00;;;;;;5026420;28;20106;-66
2021/03/12 02:31:39;;;;;;;18.92;5.60;;;10.30;68.20;;;;;;5041593;28;20021;-67
2021/03/12 02:34:08;;;;;;;16.75;4.25;;;10.30;68.40;;;;;;5039109;28;20447;-67
2021/03/12 02:36:35;;;;;;;12.20;3.03;;;10.30;68.10;;;;;;5044379;28;20470;-67
2021/03/12 02:39:03;;;;;;;10.05;3.63;;;10.30;68.10;;;;;;5024649;28;20382;-67
2021/03/12 02:41:30;;;;;;;10.13;2.90;;;10.30;68.10;;;;;;5030110;28;20041;-66
2021/03/12 02:43:57;;;;;;;12.90;3.28;;;10.30;68.10;;;;;;5040509;28;20039;-66
2021/03/12 02:46:24;;;;;;;12.23;3.45;;;10.30;68.10;;;;;;5037852;28;20041;-65
2021/03/12 02:48:51;;;;;;;14.23;3.72;;;10.30;67.80;;;;;;5013982;28;20039;-67
2021/03/12 02:51:18;;;;;;;13.43;3.95;;;10.30;67.90;;;;;;5041341;28;20037;-67
2021/03/12 02:53:45;;;;;;;30.33;5.97;;;10.30;67.70;;;;;;5051560;28;20036;-67
2021/03/12 02:56:11;;;;;;;15.20;3.50;;;10.30;67.60;;;;;;5049960;28;20033;-67
2021/03/12 02:58:38;;;;;;;13.82;3.70;;;10.30;67.70;;;;;;5032171;28;20083;-67
2021/03/12 03:01:05;;;;;;;8.20;3.13;;;10.20;68.00;;;;;;5035648;28;20084;-66
2021/03/12 03:03:33;;;;;;;18.95;4.07;;;10.10;68.00;;;;;;5033392;28;20587;-67
2021/03/12 03:06:00;;;;;;;14.65;3.28;;;10.10;68.10;;;;;;5049998;28;20033;-67
2021/03/12 03:08:26;;;;;;;10.32;3.50;;;10.10;68.10;;;;;;5025163;28;20033;-67
2021/03/12 03:10:53;;;;;;;11.30;2.92;;;10.10;68.00;;;;;;5026771;28;20384;-67
2021/03/12 03:13:19;;;;;;;14.82;4.28;;;10.10;67.80;;;;;;5032051;28;20472;-67
2021/03/12 03:15:45;;;;;;;15.13;3.10;;;10.20;67.60;;;;;;5031213;28;20032;-67
2021/03/12 03:18:11;;;;;;;11.18;2.75;;;10.20;67.50;;;;;;5050619;28;20037;-67
2021/03/12 03:20:37;;;;;;;10.20;2.55;;;10.20;67.50;;;;;;5050040;28;20036;-67
2021/03/12 03:23:04;;;;;;;15.27;4.03;;;10.20;67.60;;;;;;5048998;28;20025;-67
2021/03/12 03:25:29;;;;;;;16.02;3.40;;;10.20;67.50;;;;;;5031283;28;20070;-67
2021/03/12 03:27:55;;;;;;;11.43;3.42;;;10.20;67.40;;;;;;5024129;28;20060;-68
2021/03/12 03:30:21;;;;;;;10.80;2.72;;;10.10;67.50;;;;;;5049394;28;20176;-67
2021/03/12 03:32:47;;;;;;;9.88;3.05;;;10.20;67.50;;;;;;5050217;28;20025;-67
2021/03/12 03:35:13;;;;;;;10.20;3.08;;;10.10;67.40;;;;;;5031280;28;20112;-67
2021/03/12 03:37:41;;;;;;;12.35;3.75;;;10.10;67.40;;;;;;5049188;28;20104;-67
2021/03/12 03:40:09;;;;;;;15.38;3.22;;;10.20;67.10;;;;;;5049806;28;20481;-67
2021/03/12 03:42:36;;;;;;;15.40;3.40;;;10.10;67.40;;;;;;5037489;28;20046;-67
2021/03/12 03:45:06;;;;;;;12.82;3.35;;;10.10;67.40;;;;;;5029698;28;20067;-67
2021/03/12 03:47:32;;;;;;;15.63;3.20;;;10.10;67.20;;;;;;5049317;28;20033;-67
2021/03/12 03:49:59;;;;;;;13.38;3.33;;;10.00;67.30;;;;;;5050307;28;20127;-67
2021/03/12 03:52:26;;;;;;;12.15;2.30;;;10.00;67.60;;;;;;5047730;28;20040;-67
2021/03/12 03:54:54;;;;;;;12.10;4.07;;;10.00;67.50;;;;;;5034143;28;20033;-67
2021/03/12 03:57:24;;;;;;;13.27;3.60;;;9.90;67.50;;;;;;5039695;28;20056;-67
2021/03/12 03:59:50;;;;;;;13.05;2.47;;;9.90;67.80;;;;;;5049871;28;20044;-67
2021/03/12 04:02:18;;;;;;;10.00;2.88;;;9.90;67.70;;;;;;5048356;28;20084;-67
2021/03/12 04:04:49;;;;;;;13.48;3.17;;;10.00;67.80;;;;;;5035831;28;20080;-67
2021/03/12 04:07:17;;;;;;;13.95;3.35;;;10.00;67.60;;;;;;5043469;28;20033;-67
2021/03/12 04:09:46;;;;;;;10.23;2.38;;;10.10;67.10;;;;;;5045704;28;20040;-67
2021/03/12 04:12:13;;;;;;;11.95;2.88;;;10.00;67.60;;;;;;5042960;28;20037;-67
2021/03/12 04:14:41;;;;;;;11.38;2.53;;;10.00;67.60;;;;;;5042337;28;20363;-68
2021/03/12 04:17:08;;;;;;;8.20;2.10;;;10.00;67.50;;;;;;5046505;28;20479;-67
2021/03/12 04:19:34;;;;;;;10.00;3.00;;;9.90;67.60;;;;;;5033988;28;20025;-67
2021/03/12 04:22:01;;;;;;;13.40;2.60;;;9.90;67.80;;;;;;5037021;28;20037;-67
2021/03/12 04:24:27;;;;;;;27.38;4.78;;;9.90;67.60;;;;;;5030387;28;20083;-67
2021/03/12 04:26:53;;;;;;;11.45;3.80;;;10.00;67.50;;;;;;5049186;28;20032;-67
2021/03/12 04:29:19;;;;;;;11.18;2.53;;;9.90;67.40;;;;;;5044809;28;20025;-68
2021/03/12 04:31:45;;;;;;;9.95;2.47;;;9.90;67.20;;;;;;5013293;28;20044;-68
2021/03/12 04:34:11;;;;;;;13.10;2.92;;;9.90;67.30;;;;;;5012801;28;20041;-68
2021/03/12 04:36:38;;;;;;;12.73;3.42;;;10.00;67.30;;;;;;5044320;28;20037;-67
2021/03/12 04:39:05;;;;;;;9.63;2.60;;;9.90;67.10;;;;;;5029837;28;20120;-67
2021/03/12 04:41:31;;;;;;;13.90;2.40;;;9.90;67.20;;;;;;5048968;28;20061;-68
2021/03/12 04:43:56;;;;;;;9.55;2.50;;;9.70;67.40;;;;;;5049067;28;20036;-67
2021/03/12 04:46:22;;;;;;;12.45;2.83;;;9.70;67.40;;;;;;5030400;28;20109;-67
2021/03/12 04:48:49;;;;;;;14.50;3.70;;;9.60;67.50;;;;;;5049773;28;20053;-66
2021/03/12 04:51:15;;;;;;;14.82;2.42;;;9.60;67.70;;;;;;5043724;28;20120;-66
2021/03/12 04:53:41;;;;;;;8.98;1.88;;;9.50;67.70;;;;;;5028316;28;20432;-67
2021/03/12 04:56:07;;;;;;;8.23;2.78;;;9.50;67.90;;;;;;5048654;28;20040;-66
2021/03/12 04:58:33;;;;;;;12.70;3.20;;;9.50;67.90;;;;;;5030609;28;20053;-66
2021/03/12 05:00:59;;;;;;;15.05;3.03;;;9.50;67.80;;;;;;5047913;28;20682;-67
2021/03/12 05:03:26;;;;;;;17.08;2.40;;;9.50;67.70;;;;;;5049547;28;20036;-67
2021/03/12 05:05:55;;;;;;;14.20;3.05;;;9.60;67.60;;;;;;5031278;28;20035;-67
2021/03/12 05:08:22;;;;;;;10.98;2.72;;;9.50;67.50;;;;;;5044026;28;20048;-66
2021/03/12 05:11:04;;;;;;;11.73;2.75;;;9.60;68.10;;;;;;5043378;28;20060;-67
2021/03/12 05:13:30;;;;;;;11.13;2.85;;;9.50;67.70;;;;;;5037860;28;20108;-67
2021/03/12 05:15:56;;;;;;;14.00;2.90;;;9.40;67.90;;;;;;5041571;28;20115;-67
2021/03/12 05:18:22;;;;;;;17.25;3.95;;;9.30;68.20;;;;;;5035329;28;20474;-67
2021/03/12 05:20:49;;;;;;;11.35;2.60;;;9.40;68.10;;;;;;5043959;28;20041;-67
2021/03/12 05:23:16;;;;;;;8.75;2.92;;;9.40;68.10;;;;;;5018464;28;20172;-68
2021/03/12 05:25:42;;;;;;;9.20;2.13;;;9.40;68.20;;;;;;5052741;28;20037;-68
2021/03/12 05:28:08;;;;;;;6.75;2.10;;;9.20;68.30;;;;;;5033831;28;20037;-67
2021/03/12 05:30:34;;;;;;;6.78;2.38;;;9.20;68.50;;;;;;5052040;28;20071;-68
2021/03/12 05:33:00;;;;;;;17.83;4.20;;;9.20;68.30;;;;;;5049668;28;20475;-67
2021/03/12 05:35:26;;;;;;;13.18;3.25;;;9.20;68.50;;;;;;5030664;28;20062;-67
2021/03/12 05:37:52;;;;;;;9.00;2.40;;;9.20;68.60;;;;;;5046119;28;20061;-67
2021/03/12 05:40:19;;;;;;;6.78;2.17;;;9.10;68.80;;;;;;5033001;28;20077;-67
2021/03/12 05:42:45;;;;;;;12.70;3.33;;;9.10;68.90;;;;;;5048972;28;20029;-67
2021/03/12 05:45:11;;;;;;;14.45;3.20;;;9.10;69.00;;;;;;5051526;28;20057;-66
2021/03/12 05:47:37;;;;;;;13.20;3.22;;;9.10;68.90;;;;;;5031260;28;20025;-66
2021/03/12 05:50:05;;;;;;;8.85;2.33;;;9.00;68.90;;;;;;5036072;28;20025;-67
2021/03/12 05:52:31;;;;;;;18.40;4.97;;;9.00;69.00;;;;;;5042927;28;20041;-67
2021/03/12 05:54:58;;;;;;;11.68;2.63;;;9.00;68.90;;;;;;5051833;28;20524;-66
2021/03/12 05:57:24;;;;;;;10.98;2.60;;;9.00;69.10;;;;;;5051934;28;20029;-67
2021/03/12 05:59:51;;;;;;;22.42;4.30;;;9.00;69.00;;;;;;5018096;28;20041;-66
2021/03/12 06:02:17;;;;;;;12.15;2.63;;;9.10;68.90;;;;;;5032732;28;20045;-67
2021/03/12 06:04:46;;;;;;;13.60;3.40;;;9.10;68.70;;;;;;5015346;28;20083;-66
2021/03/12 06:07:16;;;;;;;12.45;3.67;;;9.20;68.30;;;;;;5051218;28;20025;-67
2021/03/12 06:09:45;;;;;;;15.38;4.05;;;9.20;68.30;;;;;;5052054;28;20052;-66
2021/03/12 06:12:12;;;;;;;23.15;3.40;;;9.20;68.30;;;;;;5032716;28;20359;-66
2021/03/12 06:14:58;;;;;;;10.98;2.33;;;9.20;68.20;;;;;;5047780;28;20055;-67
2021/03/12 06:17:46;;;;;;;11.02;3.17;;;9.20;68.20;;;;;;5036147;28;20040;-67
2021/03/12 06:20:14;;;;;;;11.88;2.53;;;9.30;68.00;;;;;;5045244;28;20052;-67
2021/03/12 06:22:57;;;;;;;16.25;5.10;;;9.30;68.00;;;;;;5042558;28;20056;-67
2021/03/12 06:25:23;;;;;;;10.25;3.42;;;9.30;68.00;;;;;;5033548;28;20041;-67
2021/03/12 06:27:52;;;;;;;10.82;3.38;;;9.40;67.80;;;;;;5051559;28;20475;-67
2021/03/12 06:30:23;;;;;;;12.07;3.47;;;9.40;67.80;;;;;;5049883;28;20099;-66
2021/03/12 06:32:50;;;;;;;21.55;3.92;;;9.50;67.50;;;;;;5041984;28;20386;-66
2021/03/12 06:35:17;;;;;;;9.57;2.75;;;9.50;67.40;;;;;;5049314;28;20111;-66
2021/03/12 06:37:47;;;;;;;13.27;3.50;;;9.40;67.40;;;;;;5052062;28;20498;-67
2021/03/12 06:40:18;;;;;;;14.32;4.68;;;9.40;67.40;;;;;;5039030;28;20048;-67
2021/03/12 06:43:03;;;;;;;8.00;2.95;;;9.30;67.50;;;;;;5042192;28;20462;-66
2021/03/12 06:45:30;;;;;;;15.60;3.70;;;9.30;67.80;;;;;;5045588;28;20030;-67
2021/03/12 06:48:15;;;;;;;14.77;3.25;;;9.30;67.80;;;;;;5031538;28;20109;-68
2021/03/12 06:50:49;;;;;;;14.77;3.35;;;9.30;67.80;;;;;;5016387;28;20124;-67
2021/03/12 06:53:26;;;;;;;11.02;3.20;;;9.40;67.30;;;;;;5050831;28;20033;-66
2021/03/12 06:55:54;;;;;;;11.52;3.00;;;9.50;67.00;;;;;;5027204;28;20345;-66
2021/03/12 06:58:20;;;;;;;16.17;4.85;;;9.70;66.60;;;;;;5037766;28;20446;-67
2021/03/12 07:00:46;;;;;;;11.93;3.60;;;9.70;66.40;;;;;;5049820;28;20024;-67
2021/03/12 07:03:20;;;;;;;20.40;4.57;;;9.80;66.20;;;;;;5031685;28;20084;-67
2021/03/12 07:06:07;;;;;;;16.75;4.32;;;9.60;66.10;;;;;;5046984;28;20075;-66
2021/03/12 07:08:44;;;;;;;13.52;4.22;;;9.60;66.30;;;;;;5041405;28;20106;-67
2021/03/12 07:11:23;;;;;;;11.32;3.75;;;9.70;66.20;;;;;;5039430;28;20033;-67
2021/03/12 07:13:51;;;;;;;14.98;4.18;;;9.70;66.10;;;;;;5047041;28;20324;-67
2021/03/12 07:16:17;;;;;;;10.68;3.45;;;9.80;66.10;;;;;;5045129;28;20451;-67
2021/03/12 07:18:44;;;;;;;17.02;4.50;;;9.90;65.90;;;;;;5048062;28;20040;-66
2021/03/12 07:21:12;;;;;;;15.43;3.72;;;10.00;65.80;;;;;;5031488;28;20033;-67
2021/03/12 07:23:41;;;;;;;13.45;3.28;;;10.20;65.20;;;;;;5049398;28;20086;-67
2021/03/12 07:26:12;;;;;;;12.90;3.08;;;10.30;64.20;;;;;;5047125;28;20022;-66
2021/03/12 07:28:41;;;;;;;14.85;3.35;;;10.40;64.10;;;;;;5048148;28;20028;-66
2021/03/12 07:31:09;;;;;;;17.95;4.38;;;10.60;63.80;;;;;;5044068;28;20036;-67
2021/03/12 07:33:36;;;;;;;12.23;3.47;;;10.80;63.20;;;;;;5048158;28;20040;-67
2021/03/12 07:36:04;;;;;;;15.25;3.00;;;11.10;62.50;;;;;;5049759;28;20482;-67
2021/03/12 07:38:33;;;;;;;15.20;3.00;;;11.40;61.90;;;;;;5050510;28;20578;-67
2021/03/12 07:41:01;;;;;;;11.35;3.08;;;11.80;60.90;;;;;;5031249;28;20055;-66
2021/03/12 07:43:28;;;;;;;16.65;4.35;;;12.10;59.40;;;;;;5032276;28;20491;-66
2021/03/12 07:45:54;;;;;;;17.92;4.38;;;12.40;59.30;;;;;;5010849;28;20032;-67
2021/03/12 07:48:27;;;;;;;15.18;4.63;;;13.00;57.80;;;;;;5038286;28;20029;-67
2021/03/12 07:51:15;;;;;;;16.52;2.83;;;14.00;55.70;;;;;;5050255;28;20033;-67
2021/03/12 07:53:55;;;;;;;17.40;4.75;;;14.80;52.50;;;;;;5050061;28;20047;-68
2021/03/12 07:56:45;;;;;;;21.50;9.48;;;15.40;51.10;;;;;;5049644;28;20032;-67
2021/03/12 07:59:12;;;;;;;16.30;6.78;;;15.70;50.00;;;;;;5040177;28;20096;-68
2021/03/12 08:01:49;;;;;;;13.95;5.25;;;16.00;49.10;;;;;;5041411;28;20087;-68
2021/03/12 08:04:32;;;;;;;23.73;6.68;;;16.10;48.60;;;;;;5042444;28;20051;-68
2021/03/12 08:07:20;;;;;;;15.27;5.20;;;16.10;48.90;;;;;;5043756;28;20021;-68
2021/03/12 08:09:46;;;;;;;13.20;3.15;;;16.30;48.60;;;;;;5048480;28;20450;-67
2021/03/12 08:12:33;;;;;;;14.07;4.18;;;16.40;47.80;;;;;;5049810;28;20451;-66
2021/03/12 08:15:19;;;;;;;16.50;3.63;;;16.40;48.00;;;;;;5049314;28;20553;-67
2021/03/12 08:17:46;;;;;;;13.50;3.58;;;17.00;46.90;;;;;;5031499;28;20029;-68
2021/03/12 08:20:30;;;;;;;18.58;4.10;;;17.80;46.00;;;;;;5046579;28;20118;-67
2021/03/12 08:22:57;;;;;;;13.60;4.18;;;18.70;44.40;;;;;;5031146;28;20037;-67
2021/03/12 08:25:32;;;;;;;14.23;3.78;;;19.60;42.10;;;;;;5048015;28;20056;-67
2021/03/12 08:28:07;;;;;;;14.10;4.05;;;20.20;41.00;;;;;;5034762;28;20434;-68
2021/03/12 08:30:35;;;;;;;14.48;4.03;;;20.70;39.50;;;;;;5040255;28;20162;-67
2021/03/12 08:33:21;;;;;;;14.48;4.05;;;20.80;39.10;;;;;;5049394;28;20044;-68
2021/03/12 08:35:47;;;;;;;17.38;3.92;;;20.40;38.80;;;;;;5047874;28;20033;-67
2021/03/12 08:38:31;;;;;;;17.73;4.65;;;20.60;38.60;;;;;;5031448;28;20116;-66
2021/03/12 08:40:58;;;;;;;;;;;20.70;39.20;;;;;;5046535;28;20075;-67
2021/03/12 08:43:28;;;;;;;17.98;3.95;;;21.60;37.60;;;;;;5044914;28;20353;-67
2021/03/12 08:45:54;;;;;;;13.48;3.53;;;22.30;36.70;;;;;;5047605;28;20036;-67
2021/03/12 08:48:38;;;;;;;13.30;3.90;;;23.30;34.80;;;;;;5047999;28;20108;-69
2021/03/12 08:51:21;;;;;;;12.45;3.75;;;23.40;34.40;;;;;;5045670;28;20021;-70
2021/03/12 08:53:56;;;;;;;11.90;3.08;;;22.50;34.80;;;;;;5047021;28;20097;-66
2021/03/12 08:56:36;;;;;;;13.80;3.95;;;21.90;36.40;;;;;;5053515;28;20040;-67
2021/03/12 08:59:03;;;;;;;15.88;4.75;;;21.00;37.10;;;;;;5043970;28;20147;-67
2021/03/12 09:01:31;;;;;;;13.15;3.97;;;20.20;39.50;;;;;;5045870;28;20051;-67
2021/03/12 09:03:59;;;;;;;14.60;3.90;;;21.50;36.40;;;;;;5048916;28;20423;-66
2021/03/12 09:06:36;;;;;;;12.80;4.28;;;21.40;37.20;;;;;;5038865;28;20025;-67
2021/03/12 09:09:04;;;;;;;19.13;4.00;;;21.00;37.70;;;;;;5041056;28;20093;-67
2021/03/12 09:11:30;;;;;;;14.27;3.97;;;20.70;38.60;;;;;;5047475;28;20025;-66
2021/03/12 09:13:59;;;;;;;14.70;3.65;;;20.70;39.30;;;;;;5048257;28;20112;-67
2021/03/12 09:16:29;;;;;;;15.00;4.15;;;21.30;38.10;;;;;;5037823;28;20025;-66
2021/03/12 09:18:56;;;;;;;15.35;3.78;;;21.40;37.60;;;;;;5046711;28;20056;-66
2021/03/12 09:21:24;;;;;;;16.08;4.53;;;21.00;38.20;;;;;;5049125;28;20049;-67
2021/03/12 09:23:55;;;;;;;11.90;3.97;;;21.00;38.40;;;;;;5039202;28;20044;-67
2021/03/12 09:26:24;;;;;;;13.25;3.60;;;20.60;38.60;;;;;;5038148;28;20079;-66
2021/03/12 09:28:51;;;;;;;19.52;4.68;;;20.00;39.40;;;;;;5046049;28;20025;-66
2021/03/12 09:31:20;;;;;;;18.58;4.07;;;19.70;40.20;;;;;;5047207;28;20499;-67
2021/03/12 09:33:51;;;;;;;15.95;4.63;;;18.40;41.40;;;;;;5049077;28;20061;-67
2021/03/12 09:36:32;;;;;;;17.15;4.07;;;17.40;43.30;;;;;;5047751;28;20025;-67
2021/03/12 09:39:06;;;;;;;15.30;4.97;;;17.00;44.30;;;;;;5040548;28;20052;-68
2021/03/12 09:41:32;;;;;;;15.95;5.30;;;16.30;46.10;;;;;;5046954;28;20131;-67
2021/03/12 09:44:11;;;;;;;17.88;5.75;;;15.80;47.40;;;;;;5027272;28;20098;-63
2021/03/12 09:46:52;;;;;;;13.52;4.70;;;15.10;48.60;;;;;;5043090;28;20033;-66
2021/03/12 09:49:19;;;;;;;13.55;3.95;;;14.70;49.90;;;;;;5045131;28;20094;-66
2021/03/12 09:51:48;;;;;;;18.08;4.53;;;14.50;50.40;;;;;;5048935;28;20112;-66
2021/03/12 09:54:16;;;;;;;13.98;4.00;;;14.30;50.70;;;;;;5045126;28;20077;-67
2021/03/12 09:56:50;;;;;;;18.00;4.05;;;14.10;51.40;;;;;;5040787;28;20037;-66
2021/03/12 09:59:31;;;;;;;20.10;4.68;;;13.90;52.20;;;;;;5043180;28;20029;-67
2021/03/12 10:02:08;;;;;;;12.95;4.25;;;13.70;52.90;;;;;;5039030;28;20036;-66
2021/03/12 10:04:46;;;;;;;19.33;4.85;;;13.60;53.10;;;;;;5050815;28;20133;-67
2021/03/12 10:07:15;;;;;;;14.13;2.88;;;13.50;53.40;;;;;;5051404;28;20041;-67
2021/03/12 10:09:43;;;;;;;15.73;3.80;;;13.40;53.50;;;;;;5045889;28;20021;-67
2021/03/12 10:12:20;;;;;;;16.02;3.42;;;13.40;54.00;;;;;;5049550;28;20096;-67
2021/03/12 10:14:54;;;;;;;13.43;4.03;;;13.30;54.40;;;;;;5047103;28;20035;-66
2021/03/12 10:17:25;;;;;;;17.63;4.35;;;13.30;54.50;;;;;;5049690;28;20028;-66
2021/03/12 10:19:54;;;;;;;15.82;4.05;;;13.30;54.90;;;;;;5039569;28;20033;-64
2021/03/12 10:22:30;;;;;;;15.68;3.88;;;13.10;55.00;;;;;;5043930;28;20037;-66
2021/03/12 10:25:00;;;;;;;19.70;6.65;;;13.10;55.20;;;;;;5045653;28;20029;-66
2021/03/12 10:27:29;;;;;;;16.45;4.80;;;13.00;55.60;;;;;;5046690;28;20036;-66
2021/03/12 10:29:55;;;;;;;17.80;4.70;;;13.10;55.70;;;;;;5047634;28;20099;-67
2021/03/12 10:32:22;;;;;;;13.88;4.35;;;13.00;56.30;;;;;;5050408;28;20061;-66
2021/03/12 10:34:54;;;;;;;15.73;4.68;;;12.80;56.90;;;;;;5051299;28;20033;-66
2021/03/12 10:37:23;;;;;;;15.77;3.80;;;12.80;57.10;;;;;;5051562;28;20029;-65
2021/03/12 10:39:51;;;;;;;22.77;5.13;;;12.70;58.70;;;;;;5050173;28;20055;-67
2021/03/12 10:42:28;;;;;;;15.65;3.50;;;12.60;58.90;;;;;;5049707;28;20081;-67
2021/03/12 10:44:58;;;;;;;18.73;4.15;;;12.50;59.40;;;;;;5051211;28;20545;-67
2021/03/12 10:47:25;;;;;;;24.35;6.57;;;12.40;60.10;;;;;;5031912;28;20540;-68
2021/03/12 10:49:51;;;;;;;14.38;3.63;;;12.30;60.00;;;;;;5033339;28;20045;-66
2021/03/12 10:52:26;;;;;;;15.85;3.85;;;12.30;60.40;;;;;;5028987;28;20549;-66
2021/03/12 10:54:53;;;;;;;20.77;3.92;;;12.30;60.70;;;;;;5043431;28;20119;-66
2021/03/12 10:57:34;;;;;;;14.20;3.45;;;12.40;60.50;;;;;;5049761;28;20363;-66
2021/03/12 11:00:00;;;;;;;22.10;5.43;;;12.40;60.50;;;;;;5046978;28;20505;-66
2021/03/12 11:02:36;;;;;;;10.57;3.55;;;12.40;60.80;;;;;;5015862;28;20036;-66
2021/03/12 11:05:04;;;;;;;16.05;3.35;;;12.30;61.60;;;;;;5049668;28;20033;-66
2021/03/12 11:07:29;;;;;;;13.82;4.00;;;12.20;61.90;;;;;;5037321;28;20108;-66
2021/03/12 11:09:55;;;;;;;12.95;3.75;;;12.20;62.20;;;;;;5021842;28;20496;-66
2021/03/12 11:12:21;;;;;;;16.38;3.72;;;12.20;62.60;;;;;;5036571;28;20099;-65
2021/03/12 11:14:48;;;;;;;10.80;3.45;;;12.10;63.00;;;;;;5005709;28;20029;-65
2021/03/12 11:17:15;;;;;;;14.10;2.90;;;12.10;63.20;;;;;;5041066;28;20036;-66
2021/03/12 11:19:40;;;;;;;12.13;3.72;;;12.00;63.30;;;;;;5037882;28;20045;-66
2021/03/12 11:22:06;;;;;;;14.95;3.50;;;11.90;63.60;;;;;;5040798;28;20494;-66
2021/03/12 11:24:32;;;;;;;9.63;3.10;;;11.90;63.70;;;;;;5040512;28;20355;-66
2021/03/12 11:26:58;;;;;;;12.77;3.33;;;12.00;64.10;;;;;;5037874;28;20054;-67
2021/03/12 11:29:25;;;;;;;13.93;3.60;;;11.90;64.20;;;;;;5046022;28;20031;-66
2021/03/12 11:31:51;;;;;;;12.95;3.17;;;12.00;64.20;;;;;;5042184;28;20037;-67
2021/03/12 11:34:17;;;;;;;10.57;3.85;;;12.10;64.10;;;;;;5050169;28;20048;-66
2021/03/12 11:36:42;;;;;;;17.92;4.72;;;12.20;63.30;;;;;;5049809;28;20040;-67
2021/03/12 11:39:08;;;;;;;18.02;5.38;;;12.30;63.40;;;;;;5050089;28;20033;-66
2021/03/12 11:41:34;;;;;;;11.20;3.35;;;12.40;63.10;;;;;;5031407;28;20072;-66
2021/03/12 11:44:03;;;;;;;8.00;3.17;;;12.70;63.00;;;;;;5031037;28;20442;-67
2021/03/12 11:46:30;;;;;;;15.23;4.03;;;13.00;62.10;;;;;;5047694;28;20041;-65
2021/03/12 11:48:56;;;;;;;12.20;3.88;;;13.00;60.90;;;;;;5050662;28;20033;-66
2021/03/12 11:51:21;;;;;;;18.60;3.88;;;13.00;60.60;;;;;;5049987;28;20457;-65
2021/03/12 11:53:47;;;;;;;18.98;4.97;;;13.00;60.80;;;;;;5049204;28;20124;-66
2021/03/12 11:56:13;;;;;;;13.55;4.20;;;12.90;60.90;;;;;;5049547;28;20025;-65
2021/03/12 11:58:38;;;;;;;16.73;4.80;;;12.90;60.50;;;;;;5049670;28;20029;-66
2021/03/12 12:01:04;;;;;;;18.05;5.03;;;13.00;60.70;;;;;;5048906;28;20037;-66
2021/03/12 12:03:30;;;;;;;18.70;4.68;;;13.00;60.20;;;;;;5019521;28;20398;-66
2021/03/12 12:05:55;;;;;;;18.55;4.70;;;13.00;59.90;;;;;;5031810;28;20479;-67
2021/03/12 12:08:21;;;;;;;13.07;3.08;;;13.00;60.00;;;;;;5042681;28;20041;-67
2021/03/12 12:10:47;;;;;;;12.70;3.63;;;13.00;59.60;;;;;;5042287;28;20510;-66
2021/03/12 12:13:12;;;;;;;13.80;4.55;;;13.10;59.30;;;;;;5048668;28;20114;-66
2021/03/12 12:15:38;;;;;;;13.25;3.55;;;13.30;58.70;;;;;;5027899;28;20127;-66
2021/03/12 12:18:06;;;;;;;13.48;3.15;;;13.50;58.50;;;;;;5050020;28;20048;-66
2021/03/12 12:20:32;;;;;;;18.38;5.70;;;13.70;57.50;;;;;;5049272;28;20033;-66
2021/03/12 12:22:58;;;;;;;16.67;4.32;;;13.90;57.10;;;;;;5049914;28;20068;-66
2021/03/12 12:25:24;;;;;;;16.25;4.70;;;14.10;56.10;;;;;;5031573;28;20029;-67
2021/03/12 12:27:50;;;;;;;23.67;5.97;;;14.10;55.70;;;;;;5049783;28;20035;-66
2021/03/12 12:30:17;;;;;;;17.67;5.05;;;14.10;55.40;;;;;;5038553;28;20043;-66
2021/03/12 12:32:42;;;;;;;13.77;3.70;;;13.90;55.20;;;;;;5049143;28;20037;-67
2021/03/12 12:35:08;;;;;;;12.57;3.58;;;13.70;55.90;;;;;;5048121;28;20037;-67
2021/03/12 12:37:34;;;;;;;13.93;4.15;;;13.60;56.10;;;;;;5031854;28;20033;-67
2021/03/12 12:40:01;;;;;;;12.88;3.95;;;13.60;56.10;;;;;;5031066;28;20113;-66
2021/03/12 12:42:27;;;;;;;9.23;2.58;;;13.50;55.90;;;;;;5049370;28;20052;-65
2021/03/12 12:44:52;;;;;;;10.95;2.90;;;13.40;56.00;;;;;;5049165;28;20032;-66
2021/03/12 12:47:18;;;;;;;13.88;3.88;;;13.40;56.00;;;;;;5048707;28;20435;-66
2021/03/12 12:49:44;;;;;;;11.75;3.47;;;13.30;55.80;;;;;;5048617;28;20509;-65